createdAt,value
2022-10-20T00:06:56.461Z,22.70
2022-10-20T00:17:08.125Z,23.10
2022-10-20T00:27:23.516Z,23.00
2022-10-20T00:37:32.680Z,23.00
2022-10-20T00:47:51.744Z,22.50
2022-10-20T00:58:16.476Z,22.40
2022-10-20T01:08:30.261Z,22.20
2022-10-20T01:18:49.798Z,22.00
2022-10-20T01:29:12.428Z,21.60
2022-10-20T01:39:34.379Z,21.50
2022-10-20T01:49:47.175Z,21.60
2022-10-20T02:00:05.384Z,21.40
2022-10-20T02:10:22.047Z,21.50
2022-10-20T02:20:36.044Z,21.80
2022-10-20T03:06:49.619Z,22.80
2022-10-20T03:17:44.176Z,23.00
2022-10-20T03:27:54.887Z,23.10
2022-10-20T03:38:35.253Z,23.20
2022-10-20T03:49:22.446Z,23.30
2022-10-20T04:10:29.796Z,23.40
2022-10-20T04:20:44.336Z,23.50
2022-10-20T04:31:06.038Z,23.50
2022-10-20T04:41:37.321Z,23.60
2022-10-20T04:52:10.151Z,23.50
2022-10-20T05:02:53.360Z,23.50
2022-10-20T05:14:35.473Z,23.40
2022-10-20T05:37:15.017Z,23.50
2022-10-20T05:47:25.094Z,23.60
2022-10-20T06:21:23.564Z,23.70
2022-10-20T06:31:35.505Z,23.60
2022-10-20T06:41:48.258Z,23.50
2022-10-20T06:53:04.056Z,23.50
2022-10-20T07:15:24.917Z,23.40
2022-10-20T07:25:35.097Z,23.40
2022-10-20T07:36:13.688Z,23.40
2022-10-20T07:46:35.436Z,23.30
2022-10-20T07:56:47.182Z,23.30
2022-10-20T08:06:54.519Z,23.30
2022-10-20T08:17:14.812Z,23.30
2022-10-20T08:27:21.953Z,23.30
2022-10-20T08:37:33.048Z,23.40
2022-10-20T08:47:41.473Z,23.30
2022-10-20T08:57:51.853Z,23.30
2022-10-20T09:07:59.048Z,23.30
2022-10-20T09:18:13.242Z,23.30
2022-10-20T09:28:26.120Z,23.30
2022-10-20T09:38:39.476Z,23.30
2022-10-20T09:48:50.980Z,23.30
2022-10-20T09:59:02.445Z,23.30
2022-10-20T10:09:29.978Z,23.30
2022-10-20T10:19:38.944Z,23.40
2022-10-20T10:29:46.077Z,23.40
2022-10-20T10:39:56.169Z,23.40
2022-10-20T10:50:22.149Z,23.40
2022-10-20T11:00:51.897Z,23.40
2022-10-20T11:11:11.403Z,23.40
2022-10-20T11:21:31.976Z,23.40
2022-10-20T11:31:52.029Z,23.40
2022-10-20T11:42:08.638Z,23.40
2022-10-20T11:52:56.624Z,23.40
2022-10-20T12:03:37.613Z,23.40
2022-10-20T12:13:59.849Z,23.40
2022-10-20T12:24:34.174Z,23.40
2022-10-20T12:34:55.075Z,23.40
2022-10-20T12:45:08.468Z,23.40
2022-10-20T12:55:20.571Z,23.40
2022-10-20T13:05:52.285Z,23.40
2022-10-20T13:16:04.411Z,23.40
2022-10-20T13:26:23.466Z,23.40
2022-10-20T13:36:44.753Z,23.40
2022-10-20T13:47:07.214Z,23.40
2022-10-20T13:57:28.370Z,23.50
2022-10-20T14:07:46.454Z,23.50
2022-10-20T14:18:25.526Z,23.50
2022-10-20T14:28:38.307Z,23.50
2022-10-20T14:38:51.162Z,23.60
2022-10-20T14:49:01.600Z,23.80
2022-10-20T14:59:21.686Z,23.80
2022-10-20T15:09:35.623Z,23.90
2022-10-20T15:19:43.259Z,23.90
2022-10-20T16:28:10.655Z,23.40
2022-10-20T16:38:38.954Z,23.20
2022-10-20T16:48:58.414Z,23.40
2022-10-20T16:59:41.531Z,23.50
2022-10-20T17:10:35.616Z,23.60
2022-10-20T17:21:58.927Z,23.60
2022-10-20T17:57:02.800Z,23.90
2022-10-20T18:07:15.184Z,23.70
2022-10-20T18:17:22.635Z,23.60
2022-10-20T18:27:31.850Z,23.60
2022-10-20T18:37:39.356Z,23.80
2022-10-20T18:47:50.037Z,23.80
2022-10-20T18:58:00.048Z,23.90
2022-10-20T19:08:09.075Z,24.00
2022-10-20T19:18:16.933Z,24.20
2022-10-20T19:28:25.815Z,24.20
2022-10-20T19:38:33.341Z,24.40
2022-10-20T19:48:42.419Z,24.50
2022-10-20T19:58:50.715Z,24.40
2022-10-20T20:09:03.481Z,24.20
2022-10-20T20:19:11.946Z,23.90
2022-10-20T20:29:20.746Z,23.90
2022-10-20T20:39:27.829Z,23.80
2022-10-20T20:49:36.560Z,23.70
2022-10-20T20:59:43.619Z,23.60
2022-10-20T21:09:52.600Z,23.50
2022-10-20T21:20:00.756Z,23.60
2022-10-20T21:30:12.224Z,23.80
2022-10-20T21:40:19.386Z,23.90
2022-10-20T21:50:28.161Z,23.80
2022-10-20T22:00:35.245Z,23.80
2022-10-20T22:10:44.322Z,23.40
2022-10-20T22:20:51.493Z,23.30
2022-10-20T22:41:09.374Z,23.20
2022-10-20T22:51:18.742Z,23.50
2022-10-20T23:01:26.978Z,24.00
2022-10-20T23:11:36.421Z,24.20
2022-10-20T23:21:43.476Z,24.30
2022-10-20T23:31:52.170Z,25.10
2022-10-20T23:42:02.273Z,25.30
2022-10-20T23:52:15.658Z,24.20
